createdAt,value
2019-02-02T00:01:22.127Z,21.37
2019-02-02T00:03:49.695Z,20.67
2019-02-02T00:06:17.255Z,23.57
2019-02-02T00:08:44.472Z,22.40
2019-02-02T00:11:11.709Z,22.33
2019-02-02T00:13:38.936Z,22.10
2019-02-02T00:16:06.487Z,21.50
2019-02-02T00:18:33.714Z,20.97
2019-02-02T00:21:00.955Z,19.93
2019-02-02T00:23:28.170Z,25.50
2019-02-02T00:25:55.408Z,23.30
2019-02-02T00:28:22.623Z,25.97
2019-02-02T00:30:50.075Z,21.27
2019-02-02T00:33:17.312Z,22.93
2019-02-02T00:35:44.531Z,21.67
2019-02-02T00:38:11.830Z,25.27
2019-02-02T00:40:39.047Z,21.07
2019-02-02T00:43:06.277Z,22.13
2019-02-02T00:45:33.490Z,22.13
2019-02-02T00:48:00.735Z,26.10
2019-02-02T00:50:27.982Z,23.63
2019-02-02T00:52:55.199Z,24.07
2019-02-02T00:55:22.488Z,23.57
2019-02-02T00:57:53.966Z,30.90
2019-02-02T01:03:12.702Z,21.87
2019-02-02T01:05:39.918Z,23.13
2019-02-02T01:08:07.202Z,24.40
2019-02-02T01:13:28.425Z,24.13
2019-02-02T01:15:55.697Z,29.13
2019-02-02T01:18:23.249Z,26.90
2019-02-02T01:20:50.475Z,28.83
2019-02-02T01:23:17.958Z,28.90
2019-02-02T01:25:45.529Z,29.43
2019-02-02T01:31:06.744Z,45.97
2019-02-02T01:33:33.960Z,41.13
2019-02-02T01:36:01.566Z,32.90
2019-02-02T01:38:28.805Z,29.80
2019-02-02T01:40:56.042Z,33.83
2019-02-02T01:43:23.280Z,34.47
2019-02-02T01:45:50.510Z,37.57
2019-02-02T01:48:17.747Z,60.33
2019-02-02T01:50:44.985Z,68.73
2019-02-02T01:53:12.222Z,47.23
2019-02-02T01:55:39.438Z,35.40
2019-02-02T01:58:16.464Z,34.80
2019-02-02T02:03:29.571Z,37.73
2019-02-02T02:05:56.797Z,36.60
2019-02-02T02:08:24.287Z,40.63
2019-02-02T02:10:51.525Z,37.40
2019-02-02T02:13:18.753Z,36.23
2019-02-02T02:15:45.967Z,34.87
2019-02-02T02:18:13.205Z,45.47
2019-02-02T02:20:40.429Z,41.33
2019-02-02T02:23:07.643Z,40.07
2019-02-02T02:25:34.874Z,42.37
2019-02-02T02:28:02.095Z,54.87
2019-02-02T02:30:29.655Z,44.33
2019-02-02T02:32:56.858Z,38.97
2019-02-02T02:35:24.085Z,39.23
2019-02-02T02:37:51.610Z,35.93
2019-02-02T02:43:12.325Z,37.10
2019-02-02T02:45:39.885Z,44.07
2019-02-02T02:48:07.093Z,44.77
2019-02-02T02:50:34.592Z,35.43
2019-02-02T02:53:01.875Z,42.60
2019-02-02T02:55:29.113Z,44.97
2019-02-02T02:58:03.614Z,44.00
2019-02-02T03:00:30.852Z,42.13
2019-02-02T03:02:58.333Z,45.03
2019-02-02T03:05:25.541Z,42.80
2019-02-02T03:10:46.658Z,48.53
2019-02-02T03:13:13.870Z,47.87
2019-02-02T03:15:41.411Z,50.83
2019-02-02T03:18:08.626Z,44.50
2019-02-02T03:20:36.129Z,47.93
2019-02-02T03:23:03.679Z,53.80
2019-02-02T03:25:30.907Z,47.47
2019-02-02T03:27:58.118Z,48.87
2019-02-02T03:30:25.354Z,49.07
2019-02-02T03:32:52.574Z,50.20
2019-02-02T03:38:27.327Z,43.40
2019-02-02T03:40:54.559Z,57.53
2019-02-02T03:43:22.039Z,47.93
2019-02-02T03:45:49.265Z,52.53
2019-02-02T03:48:16.507Z,49.27
2019-02-02T03:50:43.726Z,55.30
2019-02-02T03:53:10.959Z,78.17
2019-02-02T03:55:38.498Z,55.23
2019-02-02T03:58:05.725Z,59.50
2019-02-02T04:00:32.969Z,52.70
2019-02-02T04:03:00.182Z,58.77
2019-02-02T04:08:21.510Z,65.33
2019-02-02T04:10:48.730Z,56.47
2019-02-02T04:13:15.965Z,62.37
2019-02-02T04:18:17.858Z,60.40
2019-02-02T04:20:45.069Z,65.67
2019-02-02T04:23:12.300Z,58.63
2019-02-02T04:25:39.562Z,63.87
2019-02-02T04:28:06.785Z,60.03
2019-02-02T04:30:34.024Z,52.67
2019-02-02T04:33:01.257Z,61.77
2019-02-02T04:35:28.494Z,68.57
2019-02-02T04:37:55.972Z,72.10
2019-02-02T04:40:23.534Z,62.33
2019-02-02T04:42:51.082Z,73.00
2019-02-02T04:45:18.706Z,70.87
2019-02-02T04:47:46.206Z,62.57
2019-02-02T04:53:20.679Z,63.73
2019-02-02T04:55:47.946Z,83.10
2019-02-02T04:58:15.458Z,71.10
2019-02-02T05:00:43.012Z,76.53
2019-02-02T05:03:10.258Z,70.40
2019-02-02T05:05:37.824Z,78.67
2019-02-02T05:08:05.278Z,74.40
2019-02-02T05:10:32.514Z,67.53
2019-02-02T05:12:59.729Z,73.43
2019-02-02T05:15:26.962Z,64.37
2019-02-02T05:17:54.173Z,69.80
2019-02-02T05:20:21.387Z,69.93
2019-02-02T05:22:48.998Z,65.73
2019-02-02T05:25:16.322Z,62.17
2019-02-02T05:27:43.529Z,57.47
2019-02-02T05:30:30.130Z,63.00
2019-02-02T05:32:57.345Z,57.70
2019-02-02T05:35:24.558Z,61.57
2019-02-02T05:40:45.919Z,56.43
2019-02-02T05:43:13.126Z,53.23
2019-02-02T05:45:40.338Z,55.97
2019-02-02T05:48:07.891Z,53.57
2019-02-02T05:50:35.110Z,56.10
2019-02-02T05:53:02.604Z,50.60
2019-02-02T05:55:29.842Z,63.43
2019-02-02T05:57:57.310Z,58.20
2019-02-02T06:03:19.150Z,52.83
2019-02-02T06:05:46.382Z,56.43
2019-02-02T06:08:13.614Z,57.13
2019-02-02T06:10:41.215Z,66.37
2019-02-02T06:16:02.236Z,69.50
2019-02-02T06:18:29.474Z,67.93
2019-02-02T06:20:56.686Z,74.17
2019-02-02T06:23:24.194Z,65.33
2019-02-02T06:25:51.419Z,60.57
2019-02-02T06:28:18.902Z,67.93
2019-02-02T06:30:46.478Z,63.67
2019-02-02T06:33:14.026Z,60.77
2019-02-02T06:35:41.253Z,67.83
2019-02-02T06:38:08.490Z,74.43
2019-02-02T06:40:35.702Z,77.97
2019-02-02T06:43:02.929Z,74.13
2019-02-02T06:48:24.231Z,74.47
2019-02-02T06:50:51.705Z,65.77
2019-02-02T06:53:19.278Z,79.33
2019-02-02T06:55:46.830Z,77.93
2019-02-02T06:58:14.387Z,70.67
2019-02-02T07:00:41.838Z,86.13
2019-02-02T07:06:02.772Z,77.53
2019-02-02T07:08:30.010Z,76.50
2019-02-02T07:10:57.221Z,74.83
2019-02-02T07:13:24.718Z,66.90
2019-02-02T07:15:51.961Z,65.43
2019-02-02T07:18:19.533Z,57.57
2019-02-02T07:20:46.750Z,71.17
2019-02-02T07:23:13.989Z,64.10
2019-02-02T07:25:41.204Z,60.47
2019-02-02T07:28:08.743Z,64.50
2019-02-02T07:30:35.981Z,66.80
2019-02-02T07:33:03.194Z,52.60
2019-02-02T07:35:30.402Z,67.23
2019-02-02T07:37:57.638Z,63.83
2019-02-02T07:40:24.858Z,66.37
2019-02-02T07:42:52.105Z,68.90
2019-02-02T07:48:26.624Z,66.57
2019-02-02T07:50:54.241Z,60.23
2019-02-02T07:53:21.814Z,56.07
2019-02-02T07:55:49.073Z,63.13
2019-02-02T07:58:16.626Z,58.63
2019-02-02T08:00:43.849Z,72.73
2019-02-02T08:03:11.165Z,56.60
2019-02-02T08:05:38.417Z,58.17
2019-02-02T08:08:05.626Z,60.70
2019-02-02T08:10:33.073Z,64.83
2019-02-02T08:13:00.318Z,65.73
2019-02-02T08:15:47.122Z,54.63
2019-02-02T08:18:14.361Z,59.07
2019-02-02T08:20:41.570Z,59.80
2019-02-02T08:23:08.800Z,64.53
2019-02-02T08:25:36.085Z,53.70
2019-02-02T08:30:56.666Z,56.07
2019-02-02T08:33:23.903Z,56.73
2019-02-02T08:35:51.367Z,60.73
2019-02-02T08:38:18.602Z,66.50
2019-02-02T08:40:45.813Z,70.40
2019-02-02T08:43:13.046Z,58.37
2019-02-02T08:45:40.265Z,63.53
2019-02-02T08:48:07.550Z,79.97
2019-02-02T08:53:42.363Z,69.50
2019-02-02T08:56:09.613Z,70.30
2019-02-02T08:58:36.898Z,60.83
2019-02-02T09:01:04.566Z,67.93
2019-02-02T09:03:33.433Z,70.40
2019-02-02T09:08:33.340Z,62.43
2019-02-02T09:11:00.552Z,72.90
2019-02-02T09:13:27.782Z,66.67
2019-02-02T09:15:55.318Z,62.87
2019-02-02T09:18:22.867Z,90.97
2019-02-02T09:20:50.105Z,72.60
2019-02-02T09:23:17.319Z,66.03
2019-02-02T09:25:44.560Z,57.47
2019-02-02T09:28:12.079Z,62.67
2019-02-02T09:30:39.640Z,70.30
2019-02-02T09:33:06.927Z,60.57
2019-02-02T09:35:34.155Z,72.33
2019-02-02T09:38:01.380Z,70.10
2019-02-02T09:40:28.588Z,68.67
2019-02-02T09:42:56.098Z,72.90
2019-02-02T09:48:17.501Z,59.50
2019-02-02T09:50:44.718Z,59.60
2019-02-02T09:53:12.342Z,58.47
2019-02-02T09:55:39.545Z,59.03
2019-02-02T10:01:00.459Z,53.37
2019-02-02T10:03:27.700Z,58.00
2019-02-02T10:05:55.217Z,63.30
2019-02-02T10:08:22.691Z,54.07
2019-02-02T10:10:49.906Z,57.87
2019-02-02T10:13:17.142Z,58.83
2019-02-02T10:15:44.355Z,66.87
2019-02-02T10:18:12.015Z,56.67
2019-02-02T10:20:39.178Z,59.13
2019-02-02T10:23:06.409Z,56.50
2019-02-02T10:25:33.958Z,59.33
2019-02-02T10:28:01.602Z,59.97
2019-02-02T10:33:22.145Z,59.83
2019-02-02T10:35:49.393Z,74.00
2019-02-02T10:38:16.601Z,60.67
2019-02-02T10:40:43.822Z,57.30
2019-02-02T10:43:11.129Z,61.00
2019-02-02T10:45:38.362Z,63.73
2019-02-02T10:51:12.853Z,53.47
2019-02-02T10:53:40.093Z,55.67
2019-02-02T10:56:07.346Z,53.33
2019-02-02T10:58:34.558Z,61.70
2019-02-02T11:01:01.782Z,55.43
2019-02-02T11:03:29.280Z,56.20
2019-02-02T11:05:56.627Z,60.83
2019-02-02T11:08:23.915Z,61.57
2019-02-02T11:10:51.218Z,55.40
2019-02-02T11:13:20.106Z,64.27
2019-02-02T11:15:47.357Z,66.27
2019-02-02T11:18:14.703Z,78.60
2019-02-02T11:20:42.169Z,73.20
2019-02-02T11:23:11.037Z,66.53
2019-02-02T11:25:38.361Z,74.43
2019-02-02T11:28:05.978Z,69.90
2019-02-02T11:33:26.586Z,71.57
2019-02-02T11:35:54.060Z,83.10
2019-02-02T11:38:21.298Z,78.37
2019-02-02T11:40:48.535Z,73.90
2019-02-02T11:43:16.026Z,79.70
2019-02-02T11:45:43.257Z,83.40
2019-02-02T11:48:10.466Z,77.70
2019-02-02T11:50:37.696Z,83.07
2019-02-02T11:53:04.930Z,77.97
2019-02-02T11:55:32.167Z,71.77
2019-02-02T11:57:59.630Z,71.10
2019-02-02T12:03:21.171Z,61.57
2019-02-02T12:05:48.409Z,58.67
2019-02-02T12:08:15.623Z,52.60
2019-02-02T12:10:42.870Z,55.00
2019-02-02T12:13:10.077Z,57.20
2019-02-02T12:15:37.622Z,57.00
2019-02-02T12:18:04.910Z,53.50
2019-02-02T12:20:33.259Z,58.03
2019-02-02T12:23:01.091Z,86.93
2019-02-02T12:25:28.593Z,87.20
2019-02-02T12:27:55.806Z,72.57
2019-02-02T12:33:16.362Z,55.13
2019-02-02T12:35:43.902Z,61.37
2019-02-02T12:38:11.462Z,76.20
2019-02-02T12:40:38.909Z,78.83
2019-02-02T12:43:06.151Z,81.60
2019-02-02T12:48:26.792Z,76.87
2019-02-02T12:50:54.006Z,78.27
2019-02-02T12:53:21.234Z,92.63
2019-02-02T12:55:48.454Z,84.77
2019-02-02T12:58:15.995Z,89.00
2019-02-02T13:00:44.353Z,96.63
2019-02-02T13:03:12.170Z,90.83
2019-02-02T13:05:39.419Z,96.60
2019-02-02T13:08:06.691Z,107.70
2019-02-02T13:10:34.310Z,112.30
2019-02-02T13:13:01.573Z,110.93
2019-02-02T13:15:28.821Z,109.77
2019-02-02T13:17:56.382Z,101.20
2019-02-02T13:22:57.895Z,96.73
2019-02-02T13:25:25.118Z,104.63
2019-02-02T13:27:52.399Z,97.13
2019-02-02T13:30:39.029Z,98.23
2019-02-02T13:33:06.597Z,108.90
2019-02-02T13:38:27.833Z,98.53
2019-02-02T13:40:55.041Z,97.60
2019-02-02T13:43:22.289Z,92.40
2019-02-02T13:45:49.782Z,107.60
2019-02-02T13:48:17.342Z,104.03
2019-02-02T13:50:44.906Z,124.60
2019-02-02T13:53:12.474Z,102.53
2019-02-02T13:55:40.079Z,117.73
2019-02-02T13:58:08.666Z,116.93
2019-02-02T14:00:36.313Z,118.80
2019-02-02T14:03:04.013Z,127.77
2019-02-02T14:05:32.518Z,115.30
2019-02-02T14:08:00.340Z,120.83
2019-02-02T14:13:35.987Z,118.43
2019-02-02T14:16:03.210Z,126.30
2019-02-02T14:18:30.746Z,101.80
2019-02-02T14:20:57.989Z,87.67
2019-02-02T14:23:25.195Z,90.20
2019-02-02T14:25:52.447Z,91.03
2019-02-02T14:28:28.089Z,88.93
2019-02-02T14:30:48.898Z,80.07
2019-02-02T14:33:16.137Z,75.27
2019-02-02T14:38:31.474Z,78.60
2019-02-02T14:40:58.949Z,79.20
2019-02-02T14:43:26.205Z,77.03
2019-02-02T14:45:53.422Z,81.17
2019-02-02T14:48:20.677Z,85.27
2019-02-02T14:50:47.909Z,92.07
2019-02-02T14:53:16.654Z,93.93
2019-02-02T14:55:45.969Z,93.80
2019-02-02T14:58:13.065Z,104.10
2019-02-02T15:00:40.282Z,100.07
2019-02-02T15:03:07.522Z,110.23
2019-02-02T15:05:42.703Z,116.80
2019-02-02T15:08:04.034Z,120.67
2019-02-02T15:10:31.258Z,117.00
2019-02-02T15:12:58.475Z,122.83
2019-02-02T15:15:26.000Z,137.37
2019-02-02T15:17:53.295Z,125.40
2019-02-02T15:23:14.182Z,135.80
2019-02-02T15:25:41.724Z,137.27
2019-02-02T15:28:08.961Z,132.80
2019-02-02T15:33:37.596Z,147.43
2019-02-02T15:35:59.046Z,149.80
2019-02-02T15:38:26.550Z,155.83
2019-02-02T15:40:59.137Z,157.20
2019-02-02T15:43:22.854Z,157.50
2019-02-02T15:45:50.134Z,152.73
2019-02-02T15:48:17.378Z,146.17
2019-02-02T15:50:44.593Z,148.83
2019-02-02T15:53:11.851Z,145.33
2019-02-02T15:55:39.090Z,153.60
2019-02-02T15:58:06.350Z,160.70
2019-02-02T16:00:53.011Z,147.20
2019-02-02T16:03:20.262Z,152.07
2019-02-02T16:05:47.486Z,163.90
2019-02-02T16:08:14.705Z,147.80
2019-02-02T16:10:41.946Z,145.53
2019-02-02T16:13:09.167Z,132.10
2019-02-02T16:15:36.418Z,142.43
2019-02-02T16:21:11.160Z,114.97
2019-02-02T16:23:38.403Z,124.03
2019-02-02T16:26:05.610Z,114.87
2019-02-02T16:28:32.847Z,121.30
2019-02-02T16:31:00.086Z,119.40
2019-02-02T16:33:27.301Z,121.17
2019-02-02T16:35:54.546Z,119.60
2019-02-02T16:38:22.026Z,121.50
2019-02-02T16:40:49.687Z,110.50
2019-02-02T16:43:17.253Z,114.93
2019-02-02T16:45:44.468Z,112.00
2019-02-02T16:48:11.967Z,110.37
2019-02-02T16:50:39.193Z,100.13
2019-02-02T16:53:06.678Z,117.83
2019-02-02T16:55:34.218Z,117.83
2019-02-02T16:58:01.530Z,111.97
2019-02-02T17:06:17.210Z,123.07
2019-02-02T17:08:44.426Z,128.07
2019-02-02T17:11:11.662Z,119.13
2019-02-02T17:13:38.906Z,122.33
2019-02-02T17:16:06.127Z,126.77
2019-02-02T17:18:33.366Z,118.13
2019-02-02T17:21:00.595Z,125.03
2019-02-02T17:23:27.843Z,140.73
2019-02-02T17:25:55.077Z,127.90
2019-02-02T17:28:22.490Z,111.20
2019-02-02T17:30:49.734Z,131.67
2019-02-02T17:33:17.262Z,125.53
2019-02-02T17:35:44.502Z,122.63
2019-02-02T17:38:12.069Z,133.13
2019-02-02T17:40:39.307Z,149.77
2019-02-02T17:43:07.402Z,127.40
2019-02-02T17:45:34.950Z,135.67
2019-02-02T17:48:02.260Z,129.63
2019-02-02T17:53:22.977Z,135.70
2019-02-02T17:55:50.224Z,134.67
2019-02-02T17:58:17.442Z,142.57
2019-02-02T18:03:23.274Z,151.80
2019-02-02T18:05:50.745Z,141.87
2019-02-02T18:08:17.986Z,151.37
2019-02-02T18:10:45.227Z,158.93
2019-02-02T18:13:12.460Z,152.27
2019-02-02T18:15:39.774Z,155.60
2019-02-02T18:18:06.995Z,154.87
2019-02-02T18:20:34.235Z,149.83
2019-02-02T18:23:01.595Z,158.37
2019-02-02T18:25:29.064Z,159.43
2019-02-02T18:27:56.301Z,154.47
2019-02-02T18:33:17.402Z,171.30
2019-02-02T18:35:44.631Z,152.43
2019-02-02T18:38:12.146Z,149.10
2019-02-02T18:40:40.182Z,150.93
2019-02-02T18:43:08.360Z,145.77
2019-02-02T18:45:35.775Z,148.60
2019-02-02T18:48:02.993Z,154.07
2019-02-02T18:50:30.558Z,148.83
2019-02-02T18:58:45.927Z,137.97
2019-02-02T19:01:13.146Z,134.40
2019-02-02T19:03:40.386Z,154.10
2019-02-02T19:06:07.921Z,144.47
2019-02-02T19:08:35.163Z,153.63
2019-02-02T19:11:03.678Z,149.63
2019-02-02T19:13:31.349Z,141.97
2019-02-02T19:15:58.898Z,146.63
2019-02-02T19:18:26.114Z,149.83
2019-02-02T19:20:53.686Z,140.87
2019-02-02T19:23:25.115Z,133.63
2019-02-02T19:25:49.882Z,146.53
2019-02-02T19:28:17.091Z,152.20
2019-02-02T19:30:44.331Z,138.73
2019-02-02T19:33:11.586Z,158.33
2019-02-02T19:35:38.867Z,139.50
2019-02-02T19:38:06.499Z,143.70
2019-02-02T19:40:33.733Z,145.00
2019-02-02T19:43:01.306Z,150.53
2019-02-02T19:48:35.793Z,128.67
2019-02-02T19:51:03.125Z,151.40
2019-02-02T19:53:31.893Z,152.20
2019-02-02T19:55:59.616Z,138.70
2019-02-02T19:58:26.856Z,133.97
2019-02-02T20:00:54.358Z,147.57
2019-02-02T20:03:21.573Z,142.40
2019-02-02T20:05:48.810Z,137.60
2019-02-02T20:08:16.321Z,136.43
2019-02-02T20:10:43.874Z,133.50
2019-02-02T20:13:11.090Z,123.67
2019-02-02T20:15:38.325Z,127.00
2019-02-02T20:18:09.904Z,133.50
2019-02-02T20:20:34.810Z,129.10
2019-02-02T20:23:02.026Z,119.43
2019-02-02T20:25:29.283Z,121.60
2019-02-02T20:27:56.786Z,101.03
2019-02-02T20:33:20.018Z,100.33
2019-02-02T20:35:48.555Z,95.60
2019-02-02T20:38:15.310Z,103.80
2019-02-02T20:40:42.548Z,94.00
2019-02-02T20:43:09.770Z,111.00
2019-02-02T20:48:30.856Z,77.53
2019-02-02T20:51:00.106Z,99.73
2019-02-02T20:53:27.348Z,85.50
2019-02-02T20:55:54.561Z,96.63
2019-02-02T20:58:22.066Z,86.60
2019-02-02T21:00:49.306Z,92.17
2019-02-02T21:03:16.604Z,95.33
2019-02-02T21:05:52.054Z,92.67
2019-02-02T21:08:13.090Z,103.80
2019-02-02T21:10:40.318Z,100.67
2019-02-02T21:13:07.558Z,91.57
2019-02-02T21:15:34.781Z,89.10
2019-02-02T21:18:02.038Z,87.73
2019-02-02T21:23:23.154Z,89.20
2019-02-02T21:25:50.419Z,89.57
2019-02-02T21:28:17.962Z,95.17
2019-02-02T21:30:45.474Z,106.23
2019-02-02T21:33:12.715Z,101.07
2019-02-02T21:35:40.226Z,101.37
2019-02-02T21:38:07.529Z,89.27
2019-02-02T21:43:42.011Z,84.20
2019-02-02T21:46:09.315Z,80.93
2019-02-02T21:48:36.566Z,91.43
2019-02-02T21:53:58.055Z,93.93
2019-02-02T21:56:25.266Z,98.43
2019-02-02T21:58:52.770Z,106.20
2019-02-02T22:01:24.130Z,90.90
2019-02-02T22:03:49.212Z,89.83
2019-02-02T22:06:16.444Z,93.00
2019-02-02T22:08:43.654Z,99.60
2019-02-02T22:11:11.174Z,101.47
2019-02-02T22:13:38.381Z,97.33
2019-02-02T22:16:05.626Z,95.50
2019-02-02T22:18:32.838Z,92.53
2019-02-02T22:21:00.079Z,101.90
2019-02-02T22:23:27.290Z,93.13
2019-02-02T22:25:54.530Z,104.10
2019-02-02T22:28:21.753Z,105.57
2019-02-02T22:30:48.995Z,93.50
2019-02-02T22:33:16.206Z,90.90
2019-02-02T22:35:43.417Z,85.93
2019-02-02T22:38:10.659Z,88.90
2019-02-02T22:40:37.870Z,90.03
2019-02-02T22:43:05.181Z,90.77
2019-02-02T22:45:32.398Z,80.40
2019-02-02T22:47:59.609Z,86.90
2019-02-02T22:50:28.832Z,91.27
2019-02-02T22:52:56.388Z,89.03
2019-02-02T22:58:31.126Z,75.70
2019-02-02T23:04:24.950Z,78.77
2019-02-02T23:18:41.690Z,76.13
2019-02-02T23:21:10.633Z,82.47
2019-02-02T23:23:37.856Z,78.20
2019-02-02T23:26:05.129Z,72.17
2019-02-02T23:28:32.374Z,71.23
2019-02-02T23:30:59.915Z,77.83
2019-02-02T23:33:27.486Z,72.93
2019-02-02T23:35:56.406Z,73.23
2019-02-02T23:38:23.914Z,68.53
2019-02-02T23:40:51.121Z,65.70
2019-02-02T23:43:18.364Z,68.67
2019-02-02T23:45:45.577Z,62.13
2019-02-02T23:48:13.126Z,63.57
2019-02-02T23:50:40.359Z,60.70
2019-02-02T23:53:07.573Z,57.87
2019-02-02T23:55:34.822Z,51.37
2019-02-02T23:58:02.043Z,65.07
